Time;durP1;ratioP1;P1;durP2;ratioP2;P2;SDS_P1;SDS_P2;PMS_P1;PMS_P2;Temp;Humidity;BMP_temperature;BMP_pressure;BME280_temperature;BME280_humidity;BME280_pressure;Samples;Min_cycle;Max_cycle;Signal;HPM_P1;HPM_P2
2022/03/21 00:00:27;;;;;;;27.58;12.57;;;;;;;7.39;23.76;103074.34;5066044;28;20551;-71
2022/03/21 00:02:55;;;;;;;25.73;12.57;;;;;;;7.84;23.18;103071.00;5067225;28;20052;-70
2022/03/21 00:05:22;;;;;;;28.55;11.98;;;;;;;7.88;23.58;103074.38;5054728;28;20045;-70
2022/03/21 00:07:49;;;;;;;21.67;12.10;;;;;;;7.94;23.05;103063.34;5054419;28;20083;-70
2022/03/21 00:10:15;;;;;;;22.00;12.35;;;;;;;7.18;24.00;103071.84;5073109;28;20049;-72
2022/03/21 00:12:42;;;;;;;24.05;12.50;;;;;;;7.60;23.43;103077.66;5073668;28;20535;-71
2022/03/21 00:15:10;;;;;;;23.27;10.52;;;;;;;7.90;23.43;103076.00;5058974;28;20051;-71
2022/03/21 00:17:41;;;;;;;26.05;11.30;;;;;;;7.26;24.09;103073.28;5062739;28;20050;-72
2022/03/21 00:20:12;;;;;;;26.13;11.45;;;;;;;6.99;24.15;103079.09;5052616;28;20481;-72
2022/03/21 00:22:39;;;;;;;18.73;10.70;;;;;;;7.36;24.01;103072.72;5072642;28;20047;-72
2022/03/21 00:25:06;;;;;;;23.88;12.10;;;;;;;7.25;24.03;103069.72;5073555;28;20131;-72
2022/03/21 00:27:33;;;;;;;24.13;11.55;;;;;;;7.00;24.25;103078.16;5054681;28;20136;-72
2022/03/21 00:30:00;;;;;;;24.25;11.98;;;;;;;7.33;23.68;103078.22;5072149;28;20157;-72
2022/03/21 00:32:26;;;;;;;23.30;11.80;;;;;;;7.51;23.65;103072.84;5071888;28;22358;-72
2022/03/21 00:34:53;;;;;;;21.90;11.23;;;;;;;7.28;23.94;103076.72;5056753;28;20481;-72
2022/03/21 00:37:20;;;;;;;25.98;11.07;;;;;;;7.45;23.88;103073.16;5051996;28;20132;-72
2022/03/21 00:39:47;;;;;;;21.48;11.98;;;;;;;7.74;23.55;103084.91;5052180;28;20536;-72
2022/03/21 00:42:14;;;;;;;27.63;11.50;;;;;;;7.76;23.20;103083.03;5051979;28;20445;-72
2022/03/21 00:44:40;;;;;;;25.05;11.85;;;;;;;7.80;23.43;103087.25;5051777;28;20055;-72
2022/03/21 00:47:07;;;;;;;23.13;11.40;;;;;;;7.48;23.79;103089.88;5052508;28;20053;-72
2022/03/21 00:49:33;;;;;;;23.45;11.15;;;;;;;7.31;24.01;103087.25;5053171;28;20064;-72
2022/03/21 00:52:00;;;;;;;22.20;11.32;;;;;;;7.87;22.96;103078.00;5068186;28;20127;-72
2022/03/21 00:54:26;;;;;;;19.30;10.80;;;;;;;7.67;23.51;103084.38;5067115;28;20450;-72
2022/03/21 00:56:53;;;;;;;23.70;11.15;;;;;;;7.71;23.50;103085.97;5062533;28;20084;-72
2022/03/21 00:59:20;;;;;;;18.77;10.93;;;;;;;7.81;23.74;103088.97;5062099;28;20053;-72
2022/03/21 01:01:46;;;;;;;24.25;11.63;;;;;;;7.62;23.90;103089.13;5061111;28;20131;-72
2022/03/21 01:04:13;;;;;;;21.35;11.25;;;;;;;7.57;23.96;103093.84;5053809;28;20054;-72
2022/03/21 01:06:39;;;;;;;25.67;11.70;;;;;;;7.70;23.58;103089.56;5067864;28;20125;-72
2022/03/21 01:09:06;;;;;;;23.60;11.50;;;;;;;7.33;23.79;103088.03;5055841;28;20135;-72
2022/03/21 01:11:32;;;;;;;22.73;11.18;;;;;;;7.30;24.08;103085.53;5057556;28;20055;-72
2022/03/21 01:13:59;;;;;;;23.60;12.07;;;;;;;7.47;24.11;103085.50;5067371;28;20055;-72
2022/03/21 01:16:25;;;;;;;22.65;11.70;;;;;;;7.41;24.00;103083.13;5048854;28;20097;-72
2022/03/21 01:18:52;;;;;;;24.58;11.57;;;;;;;7.13;24.28;103089.94;5055604;28;20048;-72
2022/03/21 01:21:18;;;;;;;20.67;10.95;;;;;;;7.33;24.14;103078.22;5062834;28;20048;-72
2022/03/21 01:23:45;;;;;;;23.02;11.57;;;;;;;7.32;24.19;103079.13;5071729;28;20386;-72
2022/03/21 01:26:11;;;;;;;27.50;11.90;;;;;;;7.16;24.27;103079.09;5061301;28;20052;-72
2022/03/21 01:28:38;;;;;;;21.92;11.18;;;;;;;7.09;24.35;103072.34;5071562;28;20072;-72
2022/03/21 01:31:04;;;;;;;23.08;11.85;;;;;;;7.07;24.38;103070.69;5057651;28;20115;-72
2022/03/21 01:33:31;;;;;;;26.52;11.50;;;;;;;6.71;24.84;103071.66;5058481;28;20098;-72
2022/03/21 01:35:58;;;;;;;24.75;10.63;;;;;;;7.16;24.31;103065.75;5067596;28;20433;-71
2022/03/21 01:38:24;;;;;;;23.30;11.30;;;;;;;7.13;24.77;103068.56;5052997;28;20052;-71
2022/03/21 01:40:51;;;;;;;26.10;12.50;;;;;;;7.04;24.87;103062.84;5052310;28;20079;-71
2022/03/21 01:43:17;;;;;;;23.98;12.32;;;;;;;6.84;24.66;103061.19;5066204;28;20452;-72
2022/03/21 01:45:44;;;;;;;25.58;12.20;;;;;;;7.22;24.29;103063.69;5061792;28;20464;-72
2022/03/21 01:48:11;;;;;;;22.52;11.95;;;;;;;7.24;24.31;103054.66;5055656;28;20056;-72
2022/03/21 01:50:37;;;;;;;22.23;11.27;;;;;;;7.15;24.21;103057.81;5051256;28;20478;-72
2022/03/21 01:55:50;;;;;;;21.45;10.95;;;;;;;7.06;24.53;103056.50;5064841;28;20499;-72
2022/03/21 01:58:16;;;;;;;23.67;12.32;;;;;;;7.25;24.12;103047.50;5054896;28;20507;-72
2022/03/21 02:00:45;;;;;;;21.17;11.07;;;;;;;6.92;24.29;103048.34;5052135;28;20127;-72
2022/03/21 02:03:12;;;;;;;21.63;10.93;;;;;;;6.79;24.87;103052.59;5070830;28;20079;-72
2022/03/21 02:09:27;;;;;;;21.08;11.32;;;;;;;7.25;24.07;103045.69;5014029;28;20086;-72
2022/03/21 02:11:55;;;;;;;25.98;11.27;;;;;;;7.34;24.28;103047.03;5066132;28;20087;-72
2022/03/21 02:14:21;;;;;;;19.85;11.05;;;;;;;7.13;24.21;103049.88;5069911;28;20442;-72
2022/03/21 02:16:48;;;;;;;20.27;10.85;;;;;;;7.03;24.25;103051.31;5066444;28;20136;-72
2022/03/21 02:19:14;;;;;;;18.92;10.93;;;;;;;7.37;23.92;103045.06;5062720;28;20124;-72
2022/03/21 02:21:48;;;;;;;20.90;10.65;;;;;;;7.01;24.39;103044.31;5058245;28;20045;-72
2022/03/21 02:24:24;;;;;;;19.85;11.02;;;;;;;6.82;24.63;103049.75;5058029;28;20466;-71
2022/03/21 02:26:54;;;;;;;22.67;10.48;;;;;;;7.12;24.41;103040.16;5070564;28;20452;-71
2022/03/21 02:29:23;;;;;;;22.35;10.60;;;;;;;7.44;23.96;103042.91;5065799;28;20495;-71
2022/03/21 02:31:50;;;;;;;22.17;10.05;;;;;;;7.26;23.99;103036.75;5058495;28;20055;-71
2022/03/21 02:34:19;;;;;;;20.67;10.50;;;;;;;7.22;24.13;103045.00;5072729;28;20048;-71
2022/03/21 02:36:46;;;;;;;25.75;10.93;;;;;;;6.98;24.24;103042.69;5063887;28;20125;-71
2022/03/21 02:39:13;;;;;;;17.15;10.30;;;;;;;6.69;24.82;103042.38;5058283;28;20040;-71
2022/03/21 02:41:39;;;;;;;23.23;10.20;;;;;;;5.97;25.53;103050.34;5066035;28;20489;-71
2022/03/21 02:44:06;;;;;;;20.58;10.85;;;;;;;5.73;25.66;103052.38;5056296;28;20053;-71
2022/03/21 02:46:33;;;;;;;26.73;11.98;;;;;;;5.89;25.82;103039.22;5052478;28;20215;-71
2022/03/21 02:48:59;;;;;;;23.73;11.07;;;;;;;5.39;26.76;103042.44;5055709;28;20120;-71
2022/03/21 02:51:28;;;;;;;24.15;11.63;;;;;;;5.37;26.67;103044.28;5071016;28;20068;-71
2022/03/21 02:53:54;;;;;;;21.75;11.10;;;;;;;4.99;27.08;103053.03;5063365;28;20069;-71
2022/03/21 02:56:21;;;;;;;22.63;11.25;;;;;;;5.18;27.36;103046.91;5069808;28;20689;-71
2022/03/21 02:58:48;;;;;;;21.98;11.10;;;;;;;5.00;27.72;103049.44;5063298;28;20131;-71
2022/03/21 03:01:17;;;;;;;27.90;11.38;;;;;;;5.13;27.54;103044.44;5060548;28;20131;-70
2022/03/21 03:03:44;;;;;;;22.75;11.13;;;;;;;5.47;26.97;103053.59;5063791;28;20451;-70
2022/03/21 03:06:11;;;;;;;22.98;11.23;;;;;;;5.46;27.12;103051.88;5059020;28;20088;-71
2022/03/21 03:08:39;;;;;;;23.63;11.00;;;;;;;5.23;27.74;103045.78;5053021;28;20069;-70
2022/03/21 03:11:06;;;;;;;24.02;11.63;;;;;;;5.46;27.48;103051.88;5053545;28;20124;-70
2022/03/21 03:13:32;;;;;;;23.67;12.10;;;;;;;5.48;27.44;103055.31;5057631;28;20131;-71
2022/03/21 03:15:59;;;;;;;24.05;11.98;;;;;;;5.22;27.68;103059.16;5073282;28;20136;-71
2022/03/21 03:18:25;;;;;;;22.40;11.40;;;;;;;5.47;27.52;103054.44;5072264;28;20040;-71
2022/03/21 03:20:54;;;;;;;22.58;11.43;;;;;;;5.38;27.67;103051.34;5072669;28;20135;-71
2022/03/21 03:23:32;;;;;;;25.40;12.32;;;;;;;4.86;28.44;103051.84;5066900;28;20072;-71
2022/03/21 03:26:02;;;;;;;25.67;12.30;;;;;;;5.05;28.41;103046.59;5072335;28;20049;-71
2022/03/21 03:28:29;;;;;;;28.00;13.25;;;;;;;5.05;28.33;103051.91;5072915;28;20102;-70
2022/03/21 03:31:13;;;;;;;25.50;12.45;;;;;;;4.92;28.20;103054.22;5063977;28;20045;-71
2022/03/21 03:33:40;;;;;;;28.58;12.80;;;;;;;5.50;27.44;103053.47;5043905;28;20481;-71
2022/03/21 03:36:07;;;;;;;29.15;12.77;;;;;;;5.95;27.11;103054.91;5051705;28;20481;-71
2022/03/21 03:38:34;;;;;;;26.48;11.90;;;;;;;5.79;26.94;103053.91;5051885;28;20120;-71
2022/03/21 03:41:00;;;;;;;24.73;11.73;;;;;;;5.39;27.83;103045.09;5048098;28;20521;-71
2022/03/21 03:43:27;;;;;;;26.92;12.10;;;;;;;5.13;27.81;103051.56;5052804;28;20075;-71
2022/03/21 03:45:54;;;;;;;25.67;13.23;;;;;;;5.06;28.20;103048.31;5053216;28;20458;-71
2022/03/21 03:48:21;;;;;;;29.63;12.82;;;;;;;5.18;27.88;103042.47;5053074;28;20076;-70
2022/03/21 03:50:48;;;;;;;27.30;13.02;;;;;;;5.37;27.98;103045.16;5053203;28;20071;-70
2022/03/21 03:53:15;;;;;;;24.58;13.10;;;;;;;5.50;27.59;103051.66;5052177;28;20072;-70
2022/03/21 03:55:42;;;;;;;25.85;12.23;;;;;;;5.90;27.04;103046.25;5052825;28;20124;-71
2022/03/21 03:58:08;;;;;;;32.92;13.32;;;;;;;5.49;27.53;103046.38;5050727;28;20068;-71
2022/03/21 04:00:35;;;;;;;32.88;13.55;;;;;;;5.98;26.95;103046.78;5033903;28;20444;-71
2022/03/21 04:05:49;;;;;;;27.15;12.90;;;;;;;5.53;27.21;103046.19;5062884;28;20064;-71
2022/03/21 04:08:16;;;;;;;28.65;14.10;;;;;;;5.29;27.84;103048.16;5072611;28;20079;-71
2022/03/21 04:10:42;;;;;;;31.88;13.20;;;;;;;5.17;27.73;103046.03;5073425;28;20127;-71
2022/03/21 04:13:09;;;;;;;28.77;13.65;;;;;;;5.10;27.96;103039.25;5072949;28;20127;-71
2022/03/21 04:15:35;;;;;;;27.98;13.98;;;;;;;5.27;27.80;103041.16;5071587;28;20049;-71
2022/03/21 04:18:04;;;;;;;30.33;13.90;;;;;;;5.51;27.53;103040.06;5072821;28;20094;-70
2022/03/21 04:20:32;;;;;;;32.60;14.60;;;;;;;5.35;27.60;103043.47;5072338;28;20060;-70
2022/03/21 04:22:59;;;;;;;34.03;15.48;;;;;;;5.47;27.28;103041.13;5072142;28;20451;-71
2022/03/21 04:25:25;;;;;;;30.67;14.07;;;;;;;4.93;28.43;103041.78;5065094;28;20065;-71
2022/03/21 04:27:52;;;;;;;31.38;14.07;;;;;;;5.28;27.23;103049.09;5072070;28;20482;-71
2022/03/21 04:30:18;;;;;;;30.90;14.70;;;;;;;4.93;28.36;103047.97;5072386;28;20098;-71
2022/03/21 04:32:45;;;;;;;35.25;16.52;;;;;;;5.21;27.97;103047.66;5072176;28;20044;-71
2022/03/21 04:35:12;;;;;;;32.92;15.63;;;;;;;4.97;28.00;103054.03;5071907;28;20055;-70
2022/03/21 04:37:39;;;;;;;33.85;15.85;;;;;;;4.77;28.37;103055.75;5071636;28;20482;-70
2022/03/21 04:40:07;;;;;;;40.50;16.98;;;;;;;4.73;28.56;103054.16;5072939;28;20088;-71
2022/03/21 04:42:38;;;;;;;32.97;16.85;;;;;;;5.16;28.07;103052.31;5071729;28;20389;-71
2022/03/21 04:45:05;;;;;;;33.63;15.57;;;;;;;4.99;28.54;103060.16;5070532;28;20052;-69
2022/03/21 04:47:32;;;;;;;40.20;16.23;;;;;;;4.79;28.27;103048.56;5070614;28;20072;-71
2022/03/21 04:49:59;;;;;;;36.70;18.23;;;;;;;4.70;28.33;103053.44;5061961;28;20425;-70
2022/03/21 04:52:26;;;;;;;36.95;17.02;;;;;;;4.56;28.53;103051.34;5063803;28;20179;-70
2022/03/21 04:54:52;;;;;;;35.78;17.15;;;;;;;4.92;28.11;103056.91;5065919;28;20064;-71
2022/03/21 04:57:23;;;;;;;32.75;16.17;;;;;;;4.71;28.43;103057.81;5058985;28;20548;-71
2022/03/21 04:59:49;;;;;;;39.58;15.32;;;;;;;4.98;28.18;103061.97;5066495;28;20076;-71
2022/03/21 05:02:16;;;;;;;36.33;16.92;;;;;;;4.71;28.43;103065.78;5050877;28;20510;-71
2022/03/21 05:04:43;;;;;;;30.77;15.55;;;;;;;4.74;28.86;103074.50;5061237;28;20139;-71
2022/03/21 05:07:14;;;;;;;37.05;17.70;;;;;;;4.99;27.94;103073.47;5071442;28;20127;-70
2022/03/21 05:09:41;;;;;;;29.00;16.17;;;;;;;4.82;28.49;103077.69;5072096;28;20098;-70
2022/03/21 05:12:09;;;;;;;34.80;16.40;;;;;;;5.04;28.02;103079.47;5070886;28;20447;-71
2022/03/21 05:14:35;;;;;;;42.35;17.85;;;;;;;4.79;28.27;103076.97;5050794;28;20396;-70
2022/03/21 05:17:02;;;;;;;35.80;17.27;;;;;;;4.95;28.28;103069.22;5051573;28;20103;-70
2022/03/21 05:19:29;;;;;;;41.03;18.08;;;;;;;4.74;28.64;103078.97;5055789;28;20067;-71
2022/03/21 05:21:55;;;;;;;35.03;16.98;;;;;;;4.73;28.30;103075.44;5064910;28;20112;-71
2022/03/21 05:32:37;;;;;;;34.03;17.02;;;;;;;4.95;28.11;103078.03;5070428;28;20120;-71
2022/03/21 05:37:49;;;;;;;41.80;18.75;;;;;;;4.92;28.15;103079.97;4999177;28;20045;-70
2022/03/21 05:43:02;;;;;;;41.72;18.95;;;;;;;5.28;27.78;103083.72;5051771;28;20073;-71
2022/03/21 05:45:28;;;;;;;35.20;17.42;;;;;;;5.00;27.96;103085.81;5051072;28;20048;-70
2022/03/21 05:50:40;;;;;;;33.08;15.88;;;;;;;5.34;27.65;103079.03;5049738;28;20071;-71
2022/03/21 05:53:08;;;;;;;36.10;17.35;;;;;;;5.23;27.69;103075.03;5066783;28;20072;-71
2022/03/21 05:55:35;;;;;;;33.05;16.20;;;;;;;5.07;27.83;103081.97;5067900;28;20148;-71
2022/03/21 05:58:02;;;;;;;38.28;17.85;;;;;;;4.73;28.36;103075.44;5041315;28;20064;-71
2022/03/21 06:00:29;;;;;;;36.40;17.55;;;;;;;5.38;27.54;103075.28;5067241;28;20075;-70
2022/03/21 06:02:55;;;;;;;35.33;17.17;;;;;;;5.25;27.78;103078.50;5052596;28;20445;-71
2022/03/21 06:05:23;;;;;;;37.15;17.58;;;;;;;5.22;27.47;103086.63;5060992;28;20050;-71
2022/03/21 06:07:50;;;;;;;42.30;18.17;;;;;;;5.38;27.25;103080.63;5071096;28;20069;-70
2022/03/21 06:10:17;;;;;;;39.45;18.10;;;;;;;5.49;27.26;103096.97;5065178;28;20044;-70
2022/03/21 06:12:44;;;;;;;37.33;16.80;;;;;;;5.18;27.85;103095.69;5061596;28;20201;-71
2022/03/21 06:15:11;;;;;;;44.60;17.58;;;;;;;5.27;27.56;103095.25;5053610;28;20128;-71
2022/03/21 06:17:40;;;;;;;49.55;18.23;;;;;;;5.48;27.16;103097.91;5071645;28;20138;-71
2022/03/21 06:20:16;;;;;;;33.05;16.83;;;;;;;5.07;27.44;103097.06;5073149;28;20045;-71
2022/03/21 06:22:43;;;;;;;35.28;16.98;;;;;;;5.60;26.60;103097.38;5073566;28;20086;-71
2022/03/21 06:25:10;;;;;;;37.00;17.13;;;;;;;5.88;26.34;103096.97;5065935;28;20087;-71
2022/03/21 06:27:38;;;;;;;38.35;17.10;;;;;;;6.03;26.26;103094.50;5055222;28;20563;-70
2022/03/21 06:30:09;;;;;;;35.08;16.27;;;;;;;5.39;27.22;103101.88;5062273;28;20524;-71
2022/03/21 06:32:37;;;;;;;34.33;17.42;;;;;;;5.36;26.99;103101.13;5048041;28;20060;-71
2022/03/21 06:35:04;;;;;;;36.50;17.58;;;;;;;5.80;26.58;103111.56;5074115;28;20079;-71
2022/03/21 06:37:31;;;;;;;38.50;15.82;;;;;;;6.19;25.93;103107.03;5056553;28;20132;-70
2022/03/21 06:39:58;;;;;;;36.08;17.38;;;;;;;6.12;26.12;103107.41;5044510;28;20068;-70
2022/03/21 06:42:24;;;;;;;34.38;16.90;;;;;;;6.49;25.43;103114.50;5051887;28;20114;-71
2022/03/21 06:44:52;;;;;;;35.53;16.55;;;;;;;6.97;24.92;103115.69;5059899;28;20040;-71
2022/03/21 06:47:20;;;;;;;37.08;17.70;;;;;;;6.48;25.33;103118.13;5074009;28;20127;-71
2022/03/21 06:49:47;;;;;;;36.30;16.92;;;;;;;7.84;24.04;103115.56;5074015;28;20071;-70
2022/03/21 06:52:17;;;;;;;38.53;16.50;;;;;;;8.30;23.16;103115.72;5073101;28;20131;-71
2022/03/21 06:54:48;;;;;;;40.05;17.58;;;;;;;8.36;22.95;103112.66;5068285;28;20064;-71
2022/03/21 06:57:17;;;;;;;38.85;16.63;;;;;;;8.78;22.20;103117.38;5072519;28;20147;-70
2022/03/21 06:59:45;;;;;;;37.47;17.67;;;;;;;8.65;22.22;103107.47;5073005;28;20071;-71
2022/03/21 07:02:12;;;;;;;32.45;16.05;;;;;;;8.69;22.19;103106.34;5065325;28;20045;-71
2022/03/21 07:04:39;;;;;;;35.75;15.80;;;;;;;8.64;22.24;103109.25;5054451;28;20068;-70
2022/03/21 07:07:06;;;;;;;30.80;15.30;;;;;;;8.67;22.04;103103.75;5061056;28;20072;-70
2022/03/21 07:09:32;;;;;;;28.75;15.80;;;;;;;9.53;21.12;103115.53;5064486;28;20128;-71
2022/03/21 07:11:59;;;;;;;30.75;15.60;;;;;;;9.20;21.36;103113.09;5059481;28;20079;-71
2022/03/21 07:14:25;;;;;;;37.28;15.25;;;;;;;8.14;22.69;103113.88;5053115;28;20122;-71
2022/03/21 07:16:52;;;;;;;31.15;15.13;;;;;;;7.39;23.22;103119.72;5066442;28;20500;-70
2022/03/21 07:19:19;;;;;;;28.80;15.02;;;;;;;7.90;22.54;103113.44;5054828;28;20147;-70
2022/03/21 07:21:45;;;;;;;29.38;14.73;;;;;;;9.04;21.15;103120.31;5068843;28;20048;-70
2022/03/21 07:24:13;;;;;;;33.08;14.88;;;;;;;8.61;21.65;103120.16;5060599;28;20086;-69
2022/03/21 07:26:39;;;;;;;30.48;15.25;;;;;;;9.94;20.60;103120.13;5070360;28;20386;-70
2022/03/21 07:29:06;;;;;;;39.75;15.18;;;;;;;9.89;20.47;103122.25;5053388;28;20132;-70
2022/03/21 07:31:33;;;;;;;29.05;14.80;;;;;;;9.88;20.42;103128.56;5061303;28;20048;-71
2022/03/21 07:34:00;;;;;;;26.55;13.35;;;;;;;8.97;20.61;103125.16;5072001;28;20098;-71
2022/03/21 07:36:29;;;;;;;29.70;15.02;;;;;;;9.41;20.90;103128.84;5072716;28;20071;-72
2022/03/21 07:38:57;;;;;;;29.23;14.48;;;;;;;8.75;21.00;103117.56;5072107;28;20048;-72
2022/03/21 07:41:26;;;;;;;25.63;13.30;;;;;;;8.26;21.67;103116.81;5054339;28;20041;-73
2022/03/21 07:43:57;;;;;;;32.90;14.20;;;;;;;9.24;20.53;103113.81;5053115;28;20432;-74
2022/03/21 07:49:10;;;;;;;31.27;13.55;;;;;;;9.95;20.55;103110.25;5051962;28;20003;-73
2022/03/21 07:51:37;;;;;;;35.33;13.93;;;;;;;11.30;18.79;103112.91;5043040;28;20124;-75
2022/03/21 07:54:04;;;;;;;28.65;14.38;;;;;;;11.96;18.52;103105.56;5054103;28;20068;-75
2022/03/21 07:56:31;;;;;;;33.83;14.48;;;;;;;12.22;17.89;103101.00;5056220;28;20572;-75
2022/03/21 07:58:59;;;;;;;30.05;13.45;;;;;;;12.82;17.32;103102.75;5069845;28;20174;-75
2022/03/21 08:01:29;;;;;;;25.77;13.18;;;;;;;12.53;17.57;103099.56;5073513;28;20056;-75
2022/03/21 08:04:00;;;;;;;26.30;13.88;;;;;;;12.70;17.30;103095.59;5073547;28;20094;-74
2022/03/21 08:06:26;;;;;;;26.13;12.93;;;;;;;12.54;17.34;103089.66;5073631;28;20040;-74
2022/03/21 08:08:55;;;;;;;27.23;13.35;;;;;;;12.02;17.63;103091.69;5071544;28;20433;-74
2022/03/21 08:11:22;;;;;;;22.58;11.75;;;;;;;10.81;18.43;103097.47;5071803;28;20506;-74
2022/03/21 08:13:49;;;;;;;19.40;10.95;;;;;;;9.96;18.84;103102.13;5071997;28;20124;-74
2022/03/21 08:16:19;;;;;;;19.13;11.43;;;;;;;10.93;18.35;103106.53;5071526;28;20098;-74
2022/03/21 08:18:50;;;;;;;23.67;12.05;;;;;;;12.60;16.82;103095.44;5072400;28;20040;-74
2022/03/21 08:21:17;;;;;;;16.85;9.75;;;;;;;10.32;18.83;103100.72;5072192;28;20472;-74
2022/03/21 08:23:45;;;;;;;21.45;10.20;;;;;;;9.75;19.02;103103.47;5072413;28;20075;-74
2022/03/21 08:26:12;;;;;;;27.98;10.23;;;;;;;10.52;18.28;103095.91;5073529;28;20040;-74
2022/03/21 08:28:38;;;;;;;21.70;10.43;;;;;;;10.74;18.09;103085.44;5072273;28;20064;-74
2022/03/21 08:31:05;;;;;;;25.50;10.50;;;;;;;10.97;17.86;103095.47;5065344;28;20063;-74
2022/03/21 08:33:31;;;;;;;17.17;9.65;;;;;;;12.15;16.90;103088.97;5052147;28;20048;-74
2022/03/21 08:35:58;;;;;;;19.27;9.90;;;;;;;12.11;16.58;103082.09;5052089;28;20488;-74
2022/03/21 08:38:28;;;;;;;17.20;9.07;;;;;;;12.05;16.27;103079.84;5056378;28;20559;-74
2022/03/21 08:40:56;;;;;;;16.23;8.68;;;;;;;11.42;16.58;103079.81;5048607;28;20052;-74
2022/03/21 08:43:22;;;;;;;20.42;8.65;;;;;;;9.84;17.78;103088.66;5053853;28;20052;-74
2022/03/21 08:45:49;;;;;;;17.65;8.25;;;;;;;12.00;16.36;103073.91;5054130;28;20132;-74
2022/03/21 08:48:16;;;;;;;13.25;8.00;;;;;;;10.88;16.98;103084.50;5071619;28;20052;-74
2022/03/21 08:50:43;;;;;;;14.43;8.73;;;;;;;11.02;16.95;103086.22;5071130;28;20040;-74
2022/03/21 08:53:10;;;;;;;22.08;8.27;;;;;;;11.29;16.79;103076.25;5072407;28;20064;-74
2022/03/21 08:55:36;;;;;;;17.55;8.48;;;;;;;10.93;17.16;103072.47;5057645;28;20048;-74
2022/03/21 08:58:03;;;;;;;18.67;8.32;;;;;;;11.79;16.65;103061.06;5051147;28;20059;-74
2022/03/21 09:00:29;;;;;;;16.35;8.40;;;;;;;11.57;16.60;103055.50;5056531;28;20489;-74
2022/03/21 09:02:56;;;;;;;20.20;9.52;;;;;;;12.32;15.88;103063.50;5065393;28;20544;-74
2022/03/21 09:05:22;;;;;;;16.48;8.43;;;;;;;11.12;17.10;103057.78;5036454;28;20053;-74
2022/03/21 09:07:49;;;;;;;17.98;8.77;;;;;;;11.48;17.08;103056.13;5054063;28;20045;-74
2022/03/21 09:10:16;;;;;;;18.65;8.52;;;;;;;11.50;17.00;103056.91;5072142;28;20067;-75
2022/03/21 09:12:43;;;;;;;16.25;9.05;;;;;;;12.61;16.52;103056.75;5054092;28;20469;-74
2022/03/21 09:15:10;;;;;;;13.43;8.30;;;;;;;11.32;16.91;103056.38;5071943;28;20052;-73
2022/03/21 09:17:38;;;;;;;17.45;8.50;;;;;;;11.45;16.79;103063.47;5058238;28;20067;-75
2022/03/21 09:20:06;;;;;;;19.63;8.68;;;;;;;10.80;17.48;103054.63;5047719;28;20068;-75
2022/03/21 09:22:33;;;;;;;16.13;8.40;;;;;;;12.50;16.28;103053.16;5051692;28;20431;-75
2022/03/21 09:24:59;;;;;;;16.35;9.40;;;;;;;12.09;16.70;103043.66;5051592;28;20073;-75
2022/03/21 09:27:26;;;;;;;16.23;8.75;;;;;;;12.37;16.57;103046.00;5051300;28;20128;-75
2022/03/21 09:29:53;;;;;;;17.83;8.93;;;;;;;12.72;15.96;103045.16;5042614;28;20067;-75
2022/03/21 09:32:19;;;;;;;16.33;8.95;;;;;;;13.27;15.68;103046.28;5049556;28;20382;-75
2022/03/21 09:34:46;;;;;;;18.23;8.65;;;;;;;13.44;15.27;103052.19;5056684;28;20044;-75
2022/03/21 09:37:12;;;;;;;15.93;8.10;;;;;;;14.01;14.86;103048.44;5069003;28;20070;-75
2022/03/21 09:39:39;;;;;;;14.82;8.07;;;;;;;13.19;14.84;103040.66;5055709;28;20508;-75
2022/03/21 09:42:06;;;;;;;14.13;8.07;;;;;;;12.36;15.42;103055.06;5061438;28;20548;-75
2022/03/21 09:44:34;;;;;;;15.80;7.47;;;;;;;12.77;15.49;103047.56;5076125;28;20433;-74
2022/03/21 09:48:08;;;;;;;16.13;7.65;;;;;;;12.66;15.59;103051.03;5075606;28;20049;-75
2022/03/21 09:49:51;;;;;;;15.00;7.80;;;;;;;13.19;14.90;103048.72;5076593;28;20049;-75
2022/03/21 09:52:20;;;;;;;17.50;8.05;;;;;;;12.43;15.69;103047.38;5057889;28;20118;-75
2022/03/21 09:54:47;;;;;;;15.35;8.18;;;;;;;13.23;15.13;103039.41;5055659;28;20072;-75
2022/03/21 09:57:13;;;;;;;18.13;6.97;;;;;;;13.30;14.48;103032.56;5056853;28;20048;-75
2022/03/21 09:59:40;;;;;;;15.35;7.55;;;;;;;13.43;14.86;103039.69;5055656;28;20052;-75
2022/03/21 10:02:08;;;;;;;14.20;7.53;;;;;;;12.75;15.33;103038.72;5055416;28;20116;-76
2022/03/21 10:04:34;;;;;;;14.43;7.85;;;;;;;14.74;14.24;103026.13;5059984;28;20045;-76
2022/03/21 10:07:01;;;;;;;16.92;8.15;;;;;;;14.53;14.15;103025.19;5056073;28;20080;-76
2022/03/21 10:09:27;;;;;;;12.32;7.60;;;;;;;14.06;14.24;103048.94;5065745;28;20095;-75
2022/03/21 10:11:56;;;;;;;17.42;8.07;;;;;;;13.67;14.76;103042.25;5071346;28;20128;-75
2022/03/21 10:14:26;;;;;;;17.95;7.72;;;;;;;13.53;14.92;103040.66;5054674;28;20108;-76
2022/03/21 10:17:10;;;;;;;11.43;7.45;;;;;;;14.04;14.74;103029.31;5055323;28;20126;-76
2022/03/21 10:19:48;;;;;;;15.88;8.60;;;;;;;15.63;13.65;103023.72;5054086;28;20083;-76
2022/03/21 10:22:35;;;;;;;22.65;8.65;;;;;;;16.41;13.11;103018.44;5077736;28;20102;-75
2022/03/21 10:25:15;;;;;;;16.42;8.48;;;;;;;16.03;13.05;103020.13;5052952;28;20049;-75
2022/03/21 10:27:44;;;;;;;16.35;7.97;;;;;;;13.86;14.71;103031.69;5067553;28;20040;-75
2022/03/21 10:30:23;;;;;;;16.58;8.52;;;;;;;14.50;14.52;103023.63;5073790;28;20044;-74
2022/03/21 10:32:55;;;;;;;15.63;8.68;;;;;;;13.79;15.05;103025.94;5064907;28;20106;-75
2022/03/21 10:35:24;;;;;;;14.38;8.40;;;;;;;13.75;15.17;103026.28;5072893;28;20040;-74
2022/03/21 10:37:53;;;;;;;15.50;8.23;;;;;;;13.70;14.94;103023.97;5055786;28;20124;-75
2022/03/21 10:40:27;;;;;;;15.88;9.45;;;;;;;14.19;14.52;103014.56;5062477;28;20060;-74
2022/03/21 10:42:59;;;;;;;17.02;8.18;;;;;;;13.94;15.06;103018.44;5074921;28;20067;-75
2022/03/21 10:45:34;;;;;;;35.55;9.35;;;;;;;14.14;14.63;103018.63;5076288;28;20048;-73
2022/03/21 10:48:04;;;;;;;25.00;8.85;;;;;;;15.40;14.09;103012.25;5074141;28;20060;-74
2022/03/21 10:50:33;;;;;;;14.77;8.07;;;;;;;15.42;13.98;103010.25;5034534;28;20065;-74
2022/03/21 10:53:09;;;;;;;20.35;9.15;;;;;;;15.11;13.89;102998.59;5035191;28;20100;-74
2022/03/21 10:55:36;;;;;;;22.85;8.75;;;;;;;13.83;15.07;103027.41;5035234;28;20065;-75
2022/03/21 10:58:04;;;;;;;22.67;8.52;;;;;;;13.20;15.65;103011.84;5042084;28;20556;-74
2022/03/21 11:00:32;;;;;;;32.05;9.00;;;;;;;13.87;15.04;103016.34;5072757;28;20048;-75
2022/03/21 11:03:14;;;;;;;58.15;10.52;;;;;;;14.98;14.35;103008.75;5054527;28;20128;-74
2022/03/21 11:05:50;;;;;;;12.60;7.63;;;;;;;13.86;14.90;103004.72;5064891;28;20056;-74
2022/03/21 11:08:18;;;;;;;23.10;8.35;;;;;;;15.55;13.82;102988.38;5074986;28;20119;-74
2022/03/21 11:10:45;;;;;;;30.48;9.13;;;;;;;15.17;14.13;103002.59;5074555;28;20071;-74
2022/03/21 11:13:12;;;;;;;16.25;8.95;;;;;;;15.24;13.81;102992.97;5075361;28;20421;-75
2022/03/21 11:15:42;;;;;;;20.05;7.90;;;;;;;16.31;13.67;102993.22;5066414;28;20139;-75
2022/03/21 11:18:09;;;;;;;20.87;8.53;;;;;;;15.38;13.75;103006.09;5054614;28;20049;-75
2022/03/21 11:20:37;;;;;;;15.00;7.78;;;;;;;16.03;13.39;102986.78;5072907;28;20040;-75
2022/03/21 11:23:04;;;;;;;16.83;8.00;;;;;;;14.79;13.72;102993.28;5070702;28;20049;-74
2022/03/21 11:25:33;;;;;;;19.67;7.47;;;;;;;15.90;13.11;102982.50;5055456;28;20045;-74
2022/03/21 11:28:31;;;;;;;20.25;7.13;;;;;;;15.63;12.82;102975.03;5053227;28;20041;-74
2022/03/21 11:31:17;;;;;;;14.70;6.22;;;;;;;15.84;12.69;102971.38;5054797;28;20544;-74
2022/03/21 11:34:14;;;;;;;12.00;6.35;;;;;;;15.01;12.98;102978.75;5033927;28;20075;-74
2022/03/21 11:36:58;;;;;;;17.60;7.65;;;;;;;14.28;13.79;102983.22;5033351;28;20143;-75
2022/03/21 11:39:26;;;;;;;13.77;7.45;;;;;;;16.35;12.68;102972.97;5034209;28;20125;-74
2022/03/21 11:42:00;;;;;;;13.65;7.32;;;;;;;14.68;13.31;102983.38;5032597;28;20132;-74
2022/03/21 11:44:27;;;;;;;16.48;7.55;;;;;;;15.75;13.09;102969.53;5034399;28;20045;-75
2022/03/21 11:47:13;;;;;;;13.18;8.05;;;;;;;15.22;13.25;102971.47;5055591;28;20055;-74
2022/03/21 11:49:40;;;;;;;14.25;6.90;;;;;;;15.70;12.39;102978.88;5023230;28;20056;-75